createdAt,value
2023-01-19T00:01:53.340Z,2.80
2023-01-19T00:06:56.787Z,3.00
2023-01-19T00:11:59.980Z,2.80
2023-01-19T00:17:02.522Z,2.70
2023-01-19T00:22:06.143Z,3.00
2023-01-19T00:27:08.693Z,2.90
2023-01-19T00:32:11.185Z,2.90
2023-01-19T00:37:13.712Z,2.80
2023-01-19T00:42:35.007Z,2.70
2023-01-19T00:47:39.279Z,2.60
2023-01-19T00:52:43.149Z,2.40
2023-01-19T00:57:45.902Z,2.50
2023-01-19T01:02:51.046Z,2.30
2023-01-19T01:07:53.655Z,2.50
2023-01-19T01:12:58.866Z,3.10
2023-01-19T01:18:01.498Z,2.80
2023-01-19T01:23:04.493Z,3.90
2023-01-19T01:28:08.887Z,4.70
2023-01-19T01:33:14.393Z,4.10
2023-01-19T01:38:17.082Z,3.80
2023-01-19T01:43:22.707Z,3.10
2023-01-19T01:48:30.868Z,3.10
2023-01-19T01:53:34.616Z,3.00
2023-01-19T01:58:38.903Z,2.60
2023-01-19T02:03:41.582Z,3.00
2023-01-19T02:09:08.788Z,3.00
2023-01-19T02:14:11.950Z,2.60
2023-01-19T02:19:20.576Z,2.60
2023-01-19T02:24:23.292Z,3.00
2023-01-19T02:29:28.206Z,3.10
2023-01-19T02:34:31.575Z,3.70
2023-01-19T02:39:39.019Z,4.00
2023-01-19T02:44:45.238Z,3.50
2023-01-19T02:50:00.960Z,3.00
2023-01-19T02:55:20.655Z,3.20
2023-01-19T03:00:51.700Z,3.10
2023-01-19T03:06:01.612Z,3.10
2023-01-19T03:11:06.712Z,3.50
2023-01-19T03:16:34.622Z,4.20
2023-01-19T03:21:39.902Z,3.80
2023-01-19T03:26:57.813Z,3.30
2023-01-19T03:32:06.190Z,3.20
2023-01-19T03:37:11.500Z,3.30
2023-01-19T03:42:16.327Z,3.10
2023-01-19T03:47:20.528Z,2.90
2023-01-19T03:52:32.563Z,2.90
2023-01-19T03:57:35.247Z,3.30
2023-01-19T04:02:37.798Z,3.80
2023-01-19T04:07:40.235Z,3.90
2023-01-19T04:12:43.004Z,4.50
2023-01-19T04:17:45.456Z,4.30
2023-01-19T04:22:49.119Z,4.30
2023-01-19T04:27:55.230Z,4.90
2023-01-19T04:32:59.956Z,5.10
2023-01-19T04:38:02.778Z,5.10
2023-01-19T04:43:05.420Z,5.60
2023-01-19T04:48:08.198Z,6.70
2023-01-19T04:53:11.103Z,6.90
2023-01-19T04:58:13.970Z,6.40
2023-01-19T05:03:16.492Z,7.10
2023-01-19T05:08:18.973Z,6.80
2023-01-19T05:13:21.470Z,7.40
2023-01-19T05:18:23.999Z,7.30
2023-01-19T05:23:26.563Z,6.60
2023-01-19T05:28:32.998Z,6.60
2023-01-19T05:33:35.507Z,6.30
2023-01-19T05:38:38.051Z,6.00
2023-01-19T05:43:40.585Z,6.90
2023-01-19T05:48:42.998Z,6.60
2023-01-19T05:53:45.561Z,8.20
2023-01-19T05:58:48.015Z,7.70
2023-01-19T06:03:50.685Z,7.30
2023-01-19T06:08:53.167Z,6.60
2023-01-19T06:13:55.673Z,5.80
2023-01-19T06:18:58.483Z,5.80
2023-01-19T06:24:01.207Z,5.20
2023-01-19T06:29:04.352Z,4.80
2023-01-19T06:34:07.053Z,4.90
2023-01-19T06:39:10.687Z,4.60
2023-01-19T06:44:13.218Z,4.40
2023-01-19T06:49:15.717Z,3.70
2023-01-19T06:54:18.232Z,3.50
2023-01-19T06:59:20.886Z,5.60
2023-01-19T07:04:23.510Z,6.00
2023-01-19T07:09:26.165Z,5.80
2023-01-19T07:14:33.627Z,4.90
2023-01-19T07:19:36.395Z,4.30
2023-01-19T07:24:39.033Z,4.50
2023-01-19T07:29:42.429Z,4.40
2023-01-19T07:34:45.855Z,4.40
2023-01-19T07:39:48.603Z,4.60
2023-01-19T07:44:51.061Z,4.10
2023-01-19T07:49:53.619Z,5.60
2023-01-19T07:54:56.107Z,4.80
2023-01-19T07:59:58.633Z,4.10
2023-01-19T08:05:01.206Z,4.90
2023-01-19T08:10:03.951Z,5.40
2023-01-19T08:15:07.295Z,5.80
2023-01-19T08:20:11.327Z,6.10
2023-01-19T08:25:13.900Z,6.80
2023-01-19T08:30:16.944Z,7.70
2023-01-19T08:35:19.455Z,7.40
2023-01-19T08:40:22.205Z,7.90
2023-01-19T08:45:25.007Z,7.80
2023-01-19T08:50:32.287Z,7.30
2023-01-19T08:55:38.256Z,7.80
2023-01-19T09:00:41.063Z,7.60
2023-01-19T09:05:43.661Z,7.30
2023-01-19T09:10:50.974Z,6.80
2023-01-19T09:15:53.454Z,7.00
2023-01-19T09:20:57.954Z,7.00
2023-01-19T09:26:02.318Z,5.70
2023-01-19T09:31:06.740Z,5.60
2023-01-19T09:36:09.422Z,5.00
2023-01-19T09:41:21.236Z,5.20
2023-01-19T09:46:34.783Z,6.00
2023-01-19T09:51:41.246Z,7.00
2023-01-19T09:56:46.138Z,6.50
2023-01-19T10:02:03.678Z,6.80
2023-01-19T10:07:30.511Z,6.70
2023-01-19T10:12:38.860Z,5.80
2023-01-19T10:18:05.631Z,6.00
2023-01-19T10:23:49.475Z,5.40
2023-01-19T10:28:57.769Z,6.10
2023-01-19T10:34:00.411Z,6.90
2023-01-19T10:39:06.614Z,6.60
2023-01-19T10:44:10.937Z,7.40
2023-01-19T10:49:35.927Z,9.10
2023-01-19T10:54:38.610Z,7.20
2023-01-19T10:59:52.277Z,6.20
2023-01-19T11:05:00.442Z,6.20
2023-01-19T11:10:19.846Z,6.90
2023-01-19T11:15:41.114Z,7.90
2023-01-19T11:20:55.272Z,8.70
2023-01-19T11:26:01.504Z,9.00
2023-01-19T11:31:31.481Z,10.30
2023-01-19T11:36:36.724Z,9.90
2023-01-19T11:41:40.174Z,9.90
2023-01-19T11:46:47.983Z,7.80
2023-01-19T11:51:57.999Z,7.10
2023-01-19T11:57:01.999Z,6.50
2023-01-19T12:02:13.303Z,6.40
2023-01-19T12:07:20.933Z,7.40
2023-01-19T12:12:26.669Z,8.90
2023-01-19T12:17:40.971Z,8.40
2023-01-19T12:22:50.822Z,8.10
2023-01-19T12:27:54.185Z,8.30
2023-01-19T12:33:21.581Z,8.60
2023-01-19T12:38:44.532Z,9.60
2023-01-19T12:44:10.785Z,9.70
2023-01-19T12:49:29.060Z,8.30
2023-01-19T12:54:33.506Z,8.40
2023-01-19T12:59:38.907Z,7.20
2023-01-19T13:05:01.544Z,5.80
2023-01-19T13:10:41.679Z,6.40
2023-01-19T13:15:44.659Z,6.90
2023-01-19T13:20:53.244Z,7.50
2023-01-19T13:26:07.161Z,6.40
2023-01-19T13:31:10.916Z,5.90
2023-01-19T13:36:21.446Z,5.30
2023-01-19T13:41:27.640Z,4.70
2023-01-19T13:46:31.195Z,5.10
2023-01-19T13:51:33.780Z,5.30
2023-01-19T13:56:36.332Z,4.20
2023-01-19T14:01:41.657Z,3.40
2023-01-19T14:06:49.661Z,4.90
2023-01-19T14:12:10.519Z,4.30
2023-01-19T14:17:31.118Z,5.50
2023-01-19T14:22:41.883Z,5.30
2023-01-19T14:27:44.551Z,4.00
2023-01-19T14:32:47.763Z,3.20
2023-01-19T14:37:52.054Z,3.20
2023-01-19T14:43:06.342Z,2.60
2023-01-19T14:48:18.383Z,5.40
2023-01-19T14:53:24.629Z,3.70
2023-01-19T14:58:30.204Z,2.90
2023-01-19T15:03:44.298Z,2.50
2023-01-19T15:08:50.070Z,1.90
2023-01-19T15:13:53.140Z,1.40
2023-01-19T15:18:55.828Z,1.10
2023-01-19T15:23:59.027Z,1.20
2023-01-19T15:29:01.682Z,1.40
2023-01-19T15:34:04.691Z,1.50
2023-01-19T15:39:07.290Z,1.00
2023-01-19T15:44:11.230Z,1.20
2023-01-19T15:49:13.654Z,1.40
2023-01-19T15:54:17.579Z,1.50
2023-01-19T15:59:20.189Z,2.10
2023-01-19T16:04:22.628Z,0.90
2023-01-19T16:09:25.315Z,0.30
2023-01-19T16:14:27.829Z,0.40
2023-01-19T16:19:30.353Z,0.30
2023-01-19T16:24:32.963Z,0.10
2023-01-19T16:29:35.549Z,-0.10
2023-01-19T16:34:38.073Z,0.10
2023-01-19T16:39:40.703Z,-0.10
2023-01-19T16:44:43.400Z,0.00
2023-01-19T16:49:45.969Z,-0.40
2023-01-19T16:54:48.541Z,-0.50
2023-01-19T16:59:52.046Z,-0.20
2023-01-19T17:04:54.701Z,-0.10
2023-01-19T17:09:57.699Z,-0.20
2023-01-19T17:15:00.529Z,-0.10
2023-01-19T17:20:03.664Z,-0.10
2023-01-19T17:25:06.841Z,-0.10
2023-01-19T17:30:10.353Z,-0.20
2023-01-19T17:35:13.181Z,-0.10
2023-01-19T17:40:16.036Z,-0.30
2023-01-19T17:45:18.937Z,-0.40
2023-01-19T17:50:21.799Z,-0.40
2023-01-19T17:55:24.330Z,-0.40
2023-01-19T18:00:27.178Z,-0.20
2023-01-19T18:05:29.685Z,-0.30
2023-01-19T18:10:32.225Z,-0.50
2023-01-19T18:15:34.781Z,-0.40
2023-01-19T18:20:39.984Z,-0.20
2023-01-19T18:25:43.252Z,0.40
2023-01-19T18:30:46.074Z,1.20
2023-01-19T18:35:48.719Z,0.70
2023-01-19T18:41:05.994Z,2.30
2023-01-19T18:46:09.953Z,2.80
2023-01-19T18:51:15.286Z,2.40
2023-01-19T18:56:18.389Z,1.90
2023-01-19T19:01:31.562Z,0.80
2023-01-19T19:06:36.068Z,1.40
2023-01-19T19:11:38.869Z,1.80
2023-01-19T19:21:44.849Z,-0.60
2023-01-19T19:31:50.487Z,-2.50
2023-01-19T19:41:56.168Z,-2.80
2023-01-19T19:46:58.830Z,-2.90
2023-01-19T19:52:01.601Z,-3.00
2023-01-19T19:57:04.742Z,-3.10
2023-01-19T20:02:07.738Z,-2.50
2023-01-19T20:07:10.648Z,-1.90
2023-01-19T20:12:13.355Z,-1.20
2023-01-19T20:17:16.685Z,-0.30
2023-01-19T20:22:19.569Z,0.30
2023-01-19T20:27:22.158Z,1.70
2023-01-19T20:32:25.345Z,2.60
2023-01-19T20:37:27.997Z,2.60
2023-01-19T20:47:33.468Z,2.90
2023-01-19T20:52:36.310Z,4.30
2023-01-19T20:57:38.830Z,4.80
2023-01-19T21:02:41.754Z,2.60
2023-01-19T21:07:44.688Z,0.90
2023-01-19T21:12:47.739Z,0.70
2023-01-19T21:17:50.444Z,0.80
2023-01-19T21:22:53.044Z,-0.20
2023-01-19T21:28:10.765Z,-0.20
2023-01-19T21:33:13.648Z,-0.50
2023-01-19T21:38:16.558Z,0.60
2023-01-19T21:43:20.664Z,0.40
2023-01-19T21:48:23.167Z,0.10
2023-01-19T21:53:25.702Z,-0.30
2023-01-19T21:58:28.204Z,-0.50
2023-01-19T22:03:31.145Z,-0.40
2023-01-19T22:08:34.407Z,-0.30
2023-01-19T22:13:38.745Z,-0.80
2023-01-19T22:18:43.757Z,-0.80
2023-01-19T22:23:51.695Z,-1.00
2023-01-19T22:28:59.410Z,-0.30
2023-01-19T22:34:01.958Z,-0.30
2023-01-19T22:39:07.114Z,-0.40
2023-01-19T22:44:14.287Z,0.10
2023-01-19T22:49:18.307Z,0.70
2023-01-19T22:54:23.094Z,0.70
2023-01-19T22:59:25.543Z,0.10
2023-01-19T23:04:28.060Z,-0.20
2023-01-19T23:09:30.590Z,0.20
2023-01-19T23:14:33.307Z,0.10
2023-01-19T23:19:36.006Z,-0.20
2023-01-19T23:24:38.679Z,-0.10
2023-01-19T23:29:41.150Z,-0.30
2023-01-19T23:34:43.630Z,-0.40
2023-01-19T23:39:46.339Z,0.20
2023-01-19T23:44:48.914Z,0.00
2023-01-19T23:49:51.456Z,-0.40
2023-01-19T23:54:54.002Z,-0.90
2023-01-19T23:59:56.531Z,-1.10
